sensor_id;sensor_type;location;lat;lon;timestamp;temperature;humidity
1367;DHT22;16877;48.810;9.282;2023-08-17T00:02:10;31.60;58.40
1367;DHT22;16877;48.810;9.282;2023-08-17T00:04:40;31.60;58.50
1367;DHT22;16877;48.810;9.282;2023-08-17T00:07:07;31.60;58.50
1367;DHT22;16877;48.810;9.282;2023-08-17T00:09:35;31.60;58.50
1367;DHT22;16877;48.810;9.282;2023-08-17T00:12:05;31.60;58.60
1367;DHT22;16877;48.810;9.282;2023-08-17T00:14:33;31.60;58.70
1367;DHT22;16877;48.810;9.282;2023-08-17T00:17:00;31.60;58.80
1367;DHT22;16877;48.810;9.282;2023-08-17T00:19:28;31.60;58.80
1367;DHT22;16877;48.810;9.282;2023-08-17T00:21:57;31.60;58.80
1367;DHT22;16877;48.810;9.282;2023-08-17T00:24:25;31.60;58.80
1367;DHT22;16877;48.810;9.282;2023-08-17T00:26:52;31.60;58.80
1367;DHT22;16877;48.810;9.282;2023-08-17T00:29:21;31.60;58.80
1367;DHT22;16877;48.810;9.282;2023-08-17T00:31:49;31.60;58.80
1367;DHT22;16877;48.810;9.282;2023-08-17T00:34:16;31.60;58.80
1367;DHT22;16877;48.810;9.282;2023-08-17T00:36:44;31.60;58.80
1367;DHT22;16877;48.810;9.282;2023-08-17T00:39:11;31.60;58.90
1367;DHT22;16877;48.810;9.282;2023-08-17T00:41:40;31.60;58.90
1367;DHT22;16877;48.810;9.282;2023-08-17T00:44:07;31.60;59.00
1367;DHT22;16877;48.810;9.282;2023-08-17T00:46:37;31.60;59.00
1367;DHT22;16877;48.810;9.282;2023-08-17T00:49:05;31.60;59.00
1367;DHT22;16877;48.810;9.282;2023-08-17T00:51:32;31.60;59.00
1367;DHT22;16877;48.810;9.282;2023-08-17T00:54:01;31.60;59.00
1367;DHT22;16877;48.810;9.282;2023-08-17T00:56:29;31.50;59.10
1367;DHT22;16877;48.810;9.282;2023-08-17T00:58:56;31.50;59.20
1367;DHT22;16877;48.810;9.282;2023-08-17T01:01:23;31.50;59.20
1367;DHT22;16877;48.810;9.282;2023-08-17T01:03:52;31.50;59.20
1367;DHT22;16877;48.810;9.282;2023-08-17T01:06:20;31.50;59.20
1367;DHT22;16877;48.810;9.282;2023-08-17T01:08:47;31.60;59.30
1367;DHT22;16877;48.810;9.282;2023-08-17T01:11:22;31.60;59.30
1367;DHT22;16877;48.810;9.282;2023-08-17T01:13:56;31.60;59.40
1367;DHT22;16877;48.810;9.282;2023-08-17T01:16:31;31.60;59.40
1367;DHT22;16877;48.810;9.282;2023-08-17T01:19:01;31.50;59.30
1367;DHT22;16877;48.810;9.282;2023-08-17T01:21:51;31.50;59.40
1367;DHT22;16877;48.810;9.282;2023-08-17T01:24:23;31.50;59.40
1367;DHT22;16877;48.810;9.282;2023-08-17T01:26:50;31.50;59.40
1367;DHT22;16877;48.810;9.282;2023-08-17T01:29:18;31.60;59.50
1367;DHT22;16877;48.810;9.282;2023-08-17T01:31:50;31.60;59.40
1367;DHT22;16877;48.810;9.282;2023-08-17T01:34:21;31.60;59.50
1367;DHT22;16877;48.810;9.282;2023-08-17T01:36:53;31.50;59.40
1367;DHT22;16877;48.810;9.282;2023-08-17T01:39:26;31.60;59.50
1367;DHT22;16877;48.810;9.282;2023-08-17T01:41:56;31.50;60.00
1367;DHT22;16877;48.810;9.282;2023-08-17T01:44:24;31.60;59.50
1367;DHT22;16877;48.810;9.282;2023-08-17T01:46:53;31.60;59.50
1367;DHT22;16877;48.810;9.282;2023-08-17T01:49:35;31.50;59.40
1367;DHT22;16877;48.810;9.282;2023-08-17T01:52:03;31.60;59.40
1367;DHT22;16877;48.810;9.282;2023-08-17T01:54:32;31.60;59.40
1367;DHT22;16877;48.810;9.282;2023-08-17T01:57:00;31.60;59.40
1367;DHT22;16877;48.810;9.282;2023-08-17T01:59:27;31.50;59.40
1367;DHT22;16877;48.810;9.282;2023-08-17T02:01:54;31.50;59.30
1367;DHT22;16877;48.810;9.282;2023-08-17T02:04:22;31.50;59.30
1367;DHT22;16877;48.810;9.282;2023-08-17T02:06:49;31.50;59.30
1367;DHT22;16877;48.810;9.282;2023-08-17T02:09:16;31.50;59.30
1367;DHT22;16877;48.810;9.282;2023-08-17T02:11:45;31.50;59.30
1367;DHT22;16877;48.810;9.282;2023-08-17T02:14:12;31.50;59.40
1367;DHT22;16877;48.810;9.282;2023-08-17T02:16:40;31.50;59.40
1367;DHT22;16877;48.810;9.282;2023-08-17T02:19:07;31.50;59.30
1367;DHT22;16877;48.810;9.282;2023-08-17T02:21:35;31.50;59.40
1367;DHT22;16877;48.810;9.282;2023-08-17T02:24:03;31.50;59.30
1367;DHT22;16877;48.810;9.282;2023-08-17T02:26:31;31.50;59.30
1367;DHT22;16877;48.810;9.282;2023-08-17T02:28:59;31.50;59.40
1367;DHT22;16877;48.810;9.282;2023-08-17T02:31:27;31.50;59.40
1367;DHT22;16877;48.810;9.282;2023-08-17T02:33:54;31.50;59.40
1367;DHT22;16877;48.810;9.282;2023-08-17T02:36:25;31.50;59.40
1367;DHT22;16877;48.810;9.282;2023-08-17T02:38:53;31.50;59.40
1367;DHT22;16877;48.810;9.282;2023-08-17T02:41:21;31.50;59.40
1367;DHT22;16877;48.810;9.282;2023-08-17T02:43:48;31.50;59.40
1367;DHT22;16877;48.810;9.282;2023-08-17T02:46:17;31.50;59.40
1367;DHT22;16877;48.810;9.282;2023-08-17T02:48:46;31.50;59.40
1367;DHT22;16877;48.810;9.282;2023-08-17T02:51:13;31.40;59.40
1367;DHT22;16877;48.810;9.282;2023-08-17T02:53:41;31.40;59.40
1367;DHT22;16877;48.810;9.282;2023-08-17T02:56:08;31.50;59.50
1367;DHT22;16877;48.810;9.282;2023-08-17T02:58:37;31.50;59.50
1367;DHT22;16877;48.810;9.282;2023-08-17T03:01:05;31.50;59.50
1367;DHT22;16877;48.810;9.282;2023-08-17T03:03:34;31.50;59.60
1367;DHT22;16877;48.810;9.282;2023-08-17T03:06:01;31.50;59.50
1367;DHT22;16877;48.810;9.282;2023-08-17T03:08:29;31.50;59.50
1367;DHT22;16877;48.810;9.282;2023-08-17T03:11:06;31.50;59.50
1367;DHT22;16877;48.810;9.282;2023-08-17T03:13:35;31.50;59.50
1367;DHT22;16877;48.810;9.282;2023-08-17T03:16:03;31.50;59.50
1367;DHT22;16877;48.810;9.282;2023-08-17T03:18:30;31.50;59.60
1367;DHT22;16877;48.810;9.282;2023-08-17T03:20:59;31.50;59.50
1367;DHT22;16877;48.810;9.282;2023-08-17T03:23:27;31.50;59.50
1367;DHT22;16877;48.810;9.282;2023-08-17T03:25:55;31.40;59.40
1367;DHT22;16877;48.810;9.282;2023-08-17T03:28:22;31.50;59.50
1367;DHT22;16877;48.810;9.282;2023-08-17T03:30:51;31.50;59.50
1367;DHT22;16877;48.810;9.282;2023-08-17T03:33:21;31.50;59.50
1367;DHT22;16877;48.810;9.282;2023-08-17T03:35:48;31.50;59.50
1367;DHT22;16877;48.810;9.282;2023-08-17T03:38:17;31.40;59.50
1367;DHT22;16877;48.810;9.282;2023-08-17T03:40:45;31.40;59.50
1367;DHT22;16877;48.810;9.282;2023-08-17T03:43:12;31.40;59.50
1367;DHT22;16877;48.810;9.282;2023-08-17T03:45:41;31.40;59.50
1367;DHT22;16877;48.810;9.282;2023-08-17T03:48:08;31.40;59.40
1367;DHT22;16877;48.810;9.282;2023-08-17T03:50:36;31.40;59.40
1367;DHT22;16877;48.810;9.282;2023-08-17T03:53:03;31.40;59.50
1367;DHT22;16877;48.810;9.282;2023-08-17T03:55:32;31.40;59.50
1367;DHT22;16877;48.810;9.282;2023-08-17T03:57:59;31.40;59.50
1367;DHT22;16877;48.810;9.282;2023-08-17T04:00:41;31.40;59.50
1367;DHT22;16877;48.810;9.282;2023-08-17T04:03:09;31.30;59.50
1367;DHT22;16877;48.810;9.282;2023-08-17T04:05:36;31.30;59.50
1367;DHT22;16877;48.810;9.282;2023-08-17T04:08:03;31.30;59.50
1367;DHT22;16877;48.810;9.282;2023-08-17T04:10:32;31.30;59.50
1367;DHT22;16877;48.810;9.282;2023-08-17T04:13:00;31.30;59.50
1367;DHT22;16877;48.810;9.282;2023-08-17T04:15:27;31.30;59.50
1367;DHT22;16877;48.810;9.282;2023-08-17T04:17:55;31.30;59.50
1367;DHT22;16877;48.810;9.282;2023-08-17T04:20:23;31.30;59.50
1367;DHT22;16877;48.810;9.282;2023-08-17T04:22:51;31.30;59.60
1367;DHT22;16877;48.810;9.282;2023-08-17T04:25:18;31.30;59.50
1367;DHT22;16877;48.810;9.282;2023-08-17T04:27:48;31.30;59.60
1367;DHT22;16877;48.810;9.282;2023-08-17T04:30:14;31.30;59.60
1367;DHT22;16877;48.810;9.282;2023-08-17T04:32:44;31.30;59.60
1367;DHT22;16877;48.810;9.282;2023-08-17T04:35:16;31.30;59.60
1367;DHT22;16877;48.810;9.282;2023-08-17T04:37:43;31.30;59.60
1367;DHT22;16877;48.810;9.282;2023-08-17T04:40:12;31.30;59.50
1367;DHT22;16877;48.810;9.282;2023-08-17T04:42:39;31.30;59.50
1367;DHT22;16877;48.810;9.282;2023-08-17T04:45:10;31.30;59.50
1367;DHT22;16877;48.810;9.282;2023-08-17T04:47:37;31.30;59.60
1367;DHT22;16877;48.810;9.282;2023-08-17T04:50:06;31.30;59.50
1367;DHT22;16877;48.810;9.282;2023-08-17T04:52:33;31.30;59.50
1367;DHT22;16877;48.810;9.282;2023-08-17T04:55:02;31.30;59.50
1367;DHT22;16877;48.810;9.282;2023-08-17T04:57:29;31.30;59.50
1367;DHT22;16877;48.810;9.282;2023-08-17T04:59:57;31.30;59.60
1367;DHT22;16877;48.810;9.282;2023-08-17T05:02:25;31.30;59.50
1367;DHT22;16877;48.810;9.282;2023-08-17T05:04:53;31.30;59.50
1367;DHT22;16877;48.810;9.282;2023-08-17T05:07:20;31.30;59.50
1367;DHT22;16877;48.810;9.282;2023-08-17T05:09:48;31.30;59.50
1367;DHT22;16877;48.810;9.282;2023-08-17T05:12:15;31.30;59.50
1367;DHT22;16877;48.810;9.282;2023-08-17T05:14:42;31.30;59.50
1367;DHT22;16877;48.810;9.282;2023-08-17T05:17:14;31.30;59.40
1367;DHT22;16877;48.810;9.282;2023-08-17T05:19:43;31.30;59.40
1367;DHT22;16877;48.810;9.282;2023-08-17T05:22:12;31.30;59.40
1367;DHT22;16877;48.810;9.282;2023-08-17T05:24:40;31.30;59.40
1367;DHT22;16877;48.810;9.282;2023-08-17T05:27:08;31.30;59.40
1367;DHT22;16877;48.810;9.282;2023-08-17T05:29:35;31.30;59.40
1367;DHT22;16877;48.810;9.282;2023-08-17T05:32:04;31.30;59.40
1367;DHT22;16877;48.810;9.282;2023-08-17T05:34:31;31.30;59.80
1367;DHT22;16877;48.810;9.282;2023-08-17T05:37:00;31.30;59.40
1367;DHT22;16877;48.810;9.282;2023-08-17T05:39:28;31.40;59.40
1367;DHT22;16877;48.810;9.282;2023-08-17T05:41:56;31.40;59.30
1367;DHT22;16877;48.810;9.282;2023-08-17T05:44:23;31.40;59.30
1367;DHT22;16877;48.810;9.282;2023-08-17T05:46:50;31.40;59.30
1367;DHT22;16877;48.810;9.282;2023-08-17T05:49:17;31.40;59.20
1367;DHT22;16877;48.810;9.282;2023-08-17T05:51:45;31.40;59.20
1367;DHT22;16877;48.810;9.282;2023-08-17T05:54:15;31.50;59.20
1367;DHT22;16877;48.810;9.282;2023-08-17T05:56:42;31.50;59.20
1367;DHT22;16877;48.810;9.282;2023-08-17T05:59:12;31.50;59.20
1367;DHT22;16877;48.810;9.282;2023-08-17T06:01:40;31.60;59.20
1367;DHT22;16877;48.810;9.282;2023-08-17T06:04:17;31.60;59.20
1367;DHT22;16877;48.810;9.282;2023-08-17T06:06:45;31.60;59.20
1367;DHT22;16877;48.810;9.282;2023-08-17T06:09:14;31.60;59.10
1367;DHT22;16877;48.810;9.282;2023-08-17T06:11:41;31.70;59.10
1367;DHT22;16877;48.810;9.282;2023-08-17T06:14:09;31.70;59.10
1367;DHT22;16877;48.810;9.282;2023-08-17T06:16:36;31.70;59.20
1367;DHT22;16877;48.810;9.282;2023-08-17T06:19:04;31.70;59.10
1367;DHT22;16877;48.810;9.282;2023-08-17T06:21:32;31.80;59.20
1367;DHT22;16877;48.810;9.282;2023-08-17T06:23:59;31.80;59.30
1367;DHT22;16877;48.810;9.282;2023-08-17T06:26:30;31.90;59.50
1367;DHT22;16877;48.810;9.282;2023-08-17T06:28:58;31.90;59.20
1367;DHT22;16877;48.810;9.282;2023-08-17T06:31:25;31.90;59.00
1367;DHT22;16877;48.810;9.282;2023-08-17T06:33:53;31.90;59.70
1367;DHT22;16877;48.810;9.282;2023-08-17T06:36:20;32.00;59.20
1367;DHT22;16877;48.810;9.282;2023-08-17T06:38:48;32.00;59.20
1367;DHT22;16877;48.810;9.282;2023-08-17T06:41:16;32.10;59.10
1367;DHT22;16877;48.810;9.282;2023-08-17T06:43:44;32.20;59.00
1367;DHT22;16877;48.810;9.282;2023-08-17T06:46:12;32.20;58.90
1367;DHT22;16877;48.810;9.282;2023-08-17T06:48:39;32.20;58.80
1367;DHT22;16877;48.810;9.282;2023-08-17T06:51:07;32.20;59.30
1367;DHT22;16877;48.810;9.282;2023-08-17T06:53:34;32.30;58.80
1367;DHT22;16877;48.810;9.282;2023-08-17T06:56:01;32.30;58.70
1367;DHT22;16877;48.810;9.282;2023-08-17T06:58:28;32.30;58.70
1367;DHT22;16877;48.810;9.282;2023-08-17T07:00:57;32.40;58.60
1367;DHT22;16877;48.810;9.282;2023-08-17T07:03:25;32.40;58.70
1367;DHT22;16877;48.810;9.282;2023-08-17T07:05:52;32.40;58.70
1367;DHT22;16877;48.810;9.282;2023-08-17T07:08:20;32.40;58.60
1367;DHT22;16877;48.810;9.282;2023-08-17T07:10:47;32.40;58.40
1367;DHT22;16877;48.810;9.282;2023-08-17T07:13:15;32.40;58.40
1367;DHT22;16877;48.810;9.282;2023-08-17T07:15:42;32.40;58.50
1367;DHT22;16877;48.810;9.282;2023-08-17T07:18:11;32.50;58.60
1367;DHT22;16877;48.810;9.282;2023-08-17T07:20:38;32.60;58.60
1367;DHT22;16877;48.810;9.282;2023-08-17T07:23:06;32.60;58.60
1367;DHT22;16877;48.810;9.282;2023-08-17T07:25:33;32.70;59.00
1367;DHT22;16877;48.810;9.282;2023-08-17T07:28:01;32.80;58.40
1367;DHT22;16877;48.810;9.282;2023-08-17T07:30:29;32.80;58.40
1367;DHT22;16877;48.810;9.282;2023-08-17T07:32:56;32.90;58.20
1367;DHT22;16877;48.810;9.282;2023-08-17T07:35:25;33.00;58.30
1367;DHT22;16877;48.810;9.282;2023-08-17T07:37:53;33.10;58.20
1367;DHT22;16877;48.810;9.282;2023-08-17T07:40:20;33.10;58.00
1367;DHT22;16877;48.810;9.282;2023-08-17T07:42:47;33.20;58.00
1367;DHT22;16877;48.810;9.282;2023-08-17T07:45:15;33.20;57.80
1367;DHT22;16877;48.810;9.282;2023-08-17T07:47:42;33.30;57.80
1367;DHT22;16877;48.810;9.282;2023-08-17T07:50:09;33.40;57.80
1367;DHT22;16877;48.810;9.282;2023-08-17T07:52:38;33.50;57.70
1367;DHT22;16877;48.810;9.282;2023-08-17T07:55:06;33.60;57.70
1367;DHT22;16877;48.810;9.282;2023-08-17T07:57:33;33.60;57.60
1367;DHT22;16877;48.810;9.282;2023-08-17T08:00:02;33.60;57.60
1367;DHT22;16877;48.810;9.282;2023-08-17T08:02:29;33.70;57.50
1367;DHT22;16877;48.810;9.282;2023-08-17T08:04:56;33.80;57.40
1367;DHT22;16877;48.810;9.282;2023-08-17T08:07:24;33.80;57.20
1367;DHT22;16877;48.810;9.282;2023-08-17T08:09:53;33.90;57.20
1367;DHT22;16877;48.810;9.282;2023-08-17T08:12:20;34.10;57.10
1367;DHT22;16877;48.810;9.282;2023-08-17T08:14:48;34.10;57.00
1367;DHT22;16877;48.810;9.282;2023-08-17T08:17:16;34.10;56.90
1367;DHT22;16877;48.810;9.282;2023-08-17T08:19:45;34.20;56.80
1367;DHT22;16877;48.810;9.282;2023-08-17T08:22:12;34.20;56.70
1367;DHT22;16877;48.810;9.282;2023-08-17T08:24:39;34.30;56.30
1367;DHT22;16877;48.810;9.282;2023-08-17T08:27:10;34.40;56.60
1367;DHT22;16877;48.810;9.282;2023-08-17T08:29:38;34.40;55.90
1367;DHT22;16877;48.810;9.282;2023-08-17T08:32:06;34.40;56.00
1367;DHT22;16877;48.810;9.282;2023-08-17T08:34:33;34.40;55.80
1367;DHT22;16877;48.810;9.282;2023-08-17T08:37:01;34.50;56.00
1367;DHT22;16877;48.810;9.282;2023-08-17T08:39:29;34.60;56.20
1367;DHT22;16877;48.810;9.282;2023-08-17T08:41:56;34.70;56.00
1367;DHT22;16877;48.810;9.282;2023-08-17T08:44:26;34.70;55.50
1367;DHT22;16877;48.810;9.282;2023-08-17T08:46:54;34.70;55.70
1367;DHT22;16877;48.810;9.282;2023-08-17T08:49:24;34.70;55.40
1367;DHT22;16877;48.810;9.282;2023-08-17T08:51:52;34.60;55.30
1367;DHT22;16877;48.810;9.282;2023-08-17T08:54:21;34.50;55.60
1367;DHT22;16877;48.810;9.282;2023-08-17T08:56:51;34.60;55.90
1367;DHT22;16877;48.810;9.282;2023-08-17T08:59:20;34.80;55.80
1367;DHT22;16877;48.810;9.282;2023-08-17T09:01:51;35.00;55.60
1367;DHT22;16877;48.810;9.282;2023-08-17T09:04:19;35.10;55.50
1367;DHT22;16877;48.810;9.282;2023-08-17T09:06:46;35.10;55.40
1367;DHT22;16877;48.810;9.282;2023-08-17T09:09:15;35.20;55.10
1367;DHT22;16877;48.810;9.282;2023-08-17T09:11:42;35.40;55.20
1367;DHT22;16877;48.810;9.282;2023-08-17T09:14:09;35.70;55.30
1367;DHT22;16877;48.810;9.282;2023-08-17T09:16:36;35.90;54.90
1367;DHT22;16877;48.810;9.282;2023-08-17T09:19:19;36.10;54.40
1367;DHT22;16877;48.810;9.282;2023-08-17T09:21:50;36.30;54.20
1367;DHT22;16877;48.810;9.282;2023-08-17T09:25:00;36.20;53.20
1367;DHT22;16877;48.810;9.282;2023-08-17T09:27:32;36.20;53.80
1367;DHT22;16877;48.810;9.282;2023-08-17T09:30:04;36.30;53.70
1367;DHT22;16877;48.810;9.282;2023-08-17T09:32:32;36.60;53.80
1367;DHT22;16877;48.810;9.282;2023-08-17T09:35:01;36.80;53.60
1367;DHT22;16877;48.810;9.282;2023-08-17T09:37:31;37.10;53.10
1367;DHT22;16877;48.810;9.282;2023-08-17T09:40:00;37.20;52.60
1367;DHT22;16877;48.810;9.282;2023-08-17T09:42:30;37.40;52.80
1367;DHT22;16877;48.810;9.282;2023-08-17T09:45:03;37.60;52.20
1367;DHT22;16877;48.810;9.282;2023-08-17T09:47:30;37.60;51.90
1367;DHT22;16877;48.810;9.282;2023-08-17T09:49:58;37.70;52.20
1367;DHT22;16877;48.810;9.282;2023-08-17T09:52:25;38.00;51.60
1367;DHT22;16877;48.810;9.282;2023-08-17T09:54:52;38.20;51.40
1367;DHT22;16877;48.810;9.282;2023-08-17T09:57:22;38.30;50.70
1367;DHT22;16877;48.810;9.282;2023-08-17T09:59:51;38.40;51.10
1367;DHT22;16877;48.810;9.282;2023-08-17T10:02:22;38.60;50.80
1367;DHT22;16877;48.810;9.282;2023-08-17T10:04:52;38.70;50.40
1367;DHT22;16877;48.810;9.282;2023-08-17T10:07:20;38.80;50.30
1367;DHT22;16877;48.810;9.282;2023-08-17T10:09:52;38.90;50.30
1367;DHT22;16877;48.810;9.282;2023-08-17T10:12:28;39.10;50.10
1367;DHT22;16877;48.810;9.282;2023-08-17T10:15:04;39.40;49.80
1367;DHT22;16877;48.810;9.282;2023-08-17T10:17:39;39.60;49.10
1367;DHT22;16877;48.810;9.282;2023-08-17T10:20:12;39.60;48.50
1367;DHT22;16877;48.810;9.282;2023-08-17T10:22:46;39.80;48.20
1367;DHT22;16877;48.810;9.282;2023-08-17T10:25:15;39.80;48.10
1367;DHT22;16877;48.810;9.282;2023-08-17T10:27:45;39.90;48.00
1367;DHT22;16877;48.810;9.282;2023-08-17T10:30:17;40.00;47.90
1367;DHT22;16877;48.810;9.282;2023-08-17T10:32:45;40.20;47.60
1367;DHT22;16877;48.810;9.282;2023-08-17T10:35:18;40.30;46.90
1367;DHT22;16877;48.810;9.282;2023-08-17T10:37:46;40.50;47.30
1367;DHT22;16877;48.810;9.282;2023-08-17T10:40:14;40.50;47.10
1367;DHT22;16877;48.810;9.282;2023-08-17T10:42:42;40.70;46.90
1367;DHT22;16877;48.810;9.282;2023-08-17T10:45:30;40.80;47.00
1367;DHT22;16877;48.810;9.282;2023-08-17T10:48:24;41.00;46.70
1367;DHT22;16877;48.810;9.282;2023-08-17T10:51:09;41.10;46.50
1367;DHT22;16877;48.810;9.282;2023-08-17T10:53:42;40.90;46.40
1367;DHT22;16877;48.810;9.282;2023-08-17T10:56:14;40.90;46.70
1367;DHT22;16877;48.810;9.282;2023-08-17T10:58:43;41.20;46.40
1367;DHT22;16877;48.810;9.282;2023-08-17T11:01:13;41.40;46.30
1367;DHT22;16877;48.810;9.282;2023-08-17T11:03:46;41.60;46.10
1367;DHT22;16877;48.810;9.282;2023-08-17T11:06:17;41.70;45.70
1367;DHT22;16877;48.810;9.282;2023-08-17T11:08:52;41.70;45.50
1367;DHT22;16877;48.810;9.282;2023-08-17T11:11:22;41.90;45.40
1367;DHT22;16877;48.810;9.282;2023-08-17T11:13:49;42.00;45.20
1367;DHT22;16877;48.810;9.282;2023-08-17T11:16:18;42.10;45.00
1367;DHT22;16877;48.810;9.282;2023-08-17T11:18:46;42.10;44.60
1367;DHT22;16877;48.810;9.282;2023-08-17T11:21:15;42.00;44.70
1367;DHT22;16877;48.810;9.282;2023-08-17T11:23:43;42.10;44.30
1367;DHT22;16877;48.810;9.282;2023-08-17T11:26:11;42.30;44.30
1367;DHT22;16877;48.810;9.282;2023-08-17T11:28:38;42.30;44.20
1367;DHT22;16877;48.810;9.282;2023-08-17T11:31:22;42.40;43.90
1367;DHT22;16877;48.810;9.282;2023-08-17T11:33:50;42.60;44.30
1367;DHT22;16877;48.810;9.282;2023-08-17T11:36:17;42.70;44.40
1367;DHT22;16877;48.810;9.282;2023-08-17T11:38:47;42.60;44.20
1367;DHT22;16877;48.810;9.282;2023-08-17T11:41:14;42.60;44.30
1367;DHT22;16877;48.810;9.282;2023-08-17T11:43:43;42.50;44.40
1367;DHT22;16877;48.810;9.282;2023-08-17T11:46:11;42.60;44.50
1367;DHT22;16877;48.810;9.282;2023-08-17T11:48:40;42.70;44.30
1367;DHT22;16877;48.810;9.282;2023-08-17T11:51:08;42.70;44.10
1367;DHT22;16877;48.810;9.282;2023-08-17T11:53:35;42.90;44.00
1367;DHT22;16877;48.810;9.282;2023-08-17T11:56:04;43.10;44.60
1367;DHT22;16877;48.810;9.282;2023-08-17T11:58:41;42.80;43.70
1367;DHT22;16877;48.810;9.282;2023-08-17T12:01:10;42.20;43.90
1367;DHT22;16877;48.810;9.282;2023-08-17T12:03:40;42.00;44.50
1367;DHT22;16877;48.810;9.282;2023-08-17T12:06:07;41.90;45.00
1367;DHT22;16877;48.810;9.282;2023-08-17T12:08:35;41.60;44.70
1367;DHT22;16877;48.810;9.282;2023-08-17T12:11:03;41.20;44.80
1367;DHT22;16877;48.810;9.282;2023-08-17T12:13:32;41.00;45.10
1367;DHT22;16877;48.810;9.282;2023-08-17T12:15:59;40.80;45.30
1367;DHT22;16877;48.810;9.282;2023-08-17T12:18:27;40.70;45.50
1367;DHT22;16877;48.810;9.282;2023-08-17T12:20:56;41.00;45.60
1367;DHT22;16877;48.810;9.282;2023-08-17T12:23:23;40.70;45.40
1367;DHT22;16877;48.810;9.282;2023-08-17T12:25:54;40.50;45.70
1367;DHT22;16877;48.810;9.282;2023-08-17T12:28:22;40.30;45.90
1367;DHT22;16877;48.810;9.282;2023-08-17T12:30:57;39.90;46.10
1367;DHT22;16877;48.810;9.282;2023-08-17T12:33:25;39.70;46.90
1367;DHT22;16877;48.810;9.282;2023-08-17T12:35:52;38.80;48.20
1367;DHT22;16877;48.810;9.282;2023-08-17T12:38:23;38.40;48.80
1367;DHT22;16877;48.810;9.282;2023-08-17T12:40:50;38.20;49.40
1367;DHT22;16877;48.810;9.282;2023-08-17T12:43:17;37.90;49.90
1367;DHT22;16877;48.810;9.282;2023-08-17T12:45:45;37.70;50.40
1367;DHT22;16877;48.810;9.282;2023-08-17T12:48:13;37.60;50.70
1367;DHT22;16877;48.810;9.282;2023-08-17T12:50:40;37.50;50.80
1367;DHT22;16877;48.810;9.282;2023-08-17T12:53:08;37.30;51.00
1367;DHT22;16877;48.810;9.282;2023-08-17T12:55:37;37.10;51.40
1367;DHT22;16877;48.810;9.282;2023-08-17T12:58:07;36.80;51.90
1367;DHT22;16877;48.810;9.282;2023-08-17T13:00:34;36.50;52.20
1367;DHT22;16877;48.810;9.282;2023-08-17T13:03:02;36.50;52.40
1367;DHT22;16877;48.810;9.282;2023-08-17T13:05:30;36.10;52.70
1367;DHT22;16877;48.810;9.282;2023-08-17T13:07:57;35.80;53.20
1367;DHT22;16877;48.810;9.282;2023-08-17T13:10:25;35.70;53.60
1367;DHT22;16877;48.810;9.282;2023-08-17T13:12:54;35.60;53.60
1367;DHT22;16877;48.810;9.282;2023-08-17T13:15:24;35.50;53.70
1367;DHT22;16877;48.810;9.282;2023-08-17T13:17:51;35.30;53.80
1367;DHT22;16877;48.810;9.282;2023-08-17T13:20:19;35.10;54.00
1367;DHT22;16877;48.810;9.282;2023-08-17T13:22:47;35.10;54.10
1367;DHT22;16877;48.810;9.282;2023-08-17T13:25:15;34.90;54.10
1367;DHT22;16877;48.810;9.282;2023-08-17T13:27:43;34.90;54.10
1367;DHT22;16877;48.810;9.282;2023-08-17T13:30:13;34.70;54.30
1367;DHT22;16877;48.810;9.282;2023-08-17T13:32:40;34.60;54.50
1367;DHT22;16877;48.810;9.282;2023-08-17T13:35:07;34.50;54.70
1367;DHT22;16877;48.810;9.282;2023-08-17T13:37:36;34.30;55.50
1367;DHT22;16877;48.810;9.282;2023-08-17T13:40:05;34.10;56.40
1367;DHT22;16877;48.810;9.282;2023-08-17T13:42:33;34.00;57.10
1367;DHT22;16877;48.810;9.282;2023-08-17T13:45:00;34.00;57.60
1367;DHT22;16877;48.810;9.282;2023-08-17T13:47:29;33.90;57.70
1367;DHT22;16877;48.810;9.282;2023-08-17T13:49:57;33.80;57.90
1367;DHT22;16877;48.810;9.282;2023-08-17T13:52:25;33.80;58.10
1367;DHT22;16877;48.810;9.282;2023-08-17T13:54:52;33.60;58.10
1367;DHT22;16877;48.810;9.282;2023-08-17T13:57:20;33.50;58.40
1367;DHT22;16877;48.810;9.282;2023-08-17T13:59:47;33.30;58.70
1367;DHT22;16877;48.810;9.282;2023-08-17T14:02:19;33.30;58.90
1367;DHT22;16877;48.810;9.282;2023-08-17T14:04:48;33.10;59.10
1367;DHT22;16877;48.810;9.282;2023-08-17T14:07:16;33.00;59.40
1367;DHT22;16877;48.810;9.282;2023-08-17T14:09:44;33.00;59.80
1367;DHT22;16877;48.810;9.282;2023-08-17T14:12:11;32.80;59.90
1367;DHT22;16877;48.810;9.282;2023-08-17T14:14:39;32.80;59.90
1367;DHT22;16877;48.810;9.282;2023-08-17T14:17:06;32.80;60.00
1367;DHT22;16877;48.810;9.282;2023-08-17T14:19:34;32.80;60.00
1367;DHT22;16877;48.810;9.282;2023-08-17T14:22:03;32.70;60.00
1367;DHT22;16877;48.810;9.282;2023-08-17T14:24:31;32.70;60.20
1367;DHT22;16877;48.810;9.282;2023-08-17T14:26:58;32.80;60.00
1367;DHT22;16877;48.810;9.282;2023-08-17T14:29:27;32.90;60.10
1367;DHT22;16877;48.810;9.282;2023-08-17T14:31:54;33.00;60.00
1367;DHT22;16877;48.810;9.282;2023-08-17T14:34:21;33.10;59.80
1367;DHT22;16877;48.810;9.282;2023-08-17T14:36:49;33.20;59.60
1367;DHT22;16877;48.810;9.282;2023-08-17T14:39:22;33.30;59.50
1367;DHT22;16877;48.810;9.282;2023-08-17T14:41:50;33.30;59.40
1367;DHT22;16877;48.810;9.282;2023-08-17T14:44:18;33.40;59.50
1367;DHT22;16877;48.810;9.282;2023-08-17T14:46:46;33.50;59.20
1367;DHT22;16877;48.810;9.282;2023-08-17T14:49:29;33.50;59.00
1367;DHT22;16877;48.810;9.282;2023-08-17T14:52:01;33.50;59.10
1367;DHT22;16877;48.810;9.282;2023-08-17T14:54:30;33.60;59.10
1367;DHT22;16877;48.810;9.282;2023-08-17T14:56:57;33.60;59.00
1367;DHT22;16877;48.810;9.282;2023-08-17T14:59:29;33.70;59.20
1367;DHT22;16877;48.810;9.282;2023-08-17T15:01:56;33.60;59.20
1367;DHT22;16877;48.810;9.282;2023-08-17T15:04:24;33.70;59.10
1367;DHT22;16877;48.810;9.282;2023-08-17T15:06:51;33.70;59.10
1367;DHT22;16877;48.810;9.282;2023-08-17T15:09:20;33.80;59.20
1367;DHT22;16877;48.810;9.282;2023-08-17T15:11:49;33.80;58.90
1367;DHT22;16877;48.810;9.282;2023-08-17T15:14:17;33.80;59.00
1367;DHT22;16877;48.810;9.282;2023-08-17T15:16:45;33.80;59.00
1367;DHT22;16877;48.810;9.282;2023-08-17T15:19:12;33.90;58.90
1367;DHT22;16877;48.810;9.282;2023-08-17T15:21:39;34.00;59.00
1367;DHT22;16877;48.810;9.282;2023-08-17T15:24:07;34.00;58.90
1367;DHT22;16877;48.810;9.282;2023-08-17T15:26:34;34.00;58.90
1367;DHT22;16877;48.810;9.282;2023-08-17T15:29:04;34.10;58.90
1367;DHT22;16877;48.810;9.282;2023-08-17T15:31:31;34.10;58.80
1367;DHT22;16877;48.810;9.282;2023-08-17T15:33:58;34.10;58.60
1367;DHT22;16877;48.810;9.282;2023-08-17T15:36:26;34.20;58.40
1367;DHT22;16877;48.810;9.282;2023-08-17T15:38:53;34.10;58.30
1367;DHT22;16877;48.810;9.282;2023-08-17T15:41:20;34.00;58.50
1367;DHT22;16877;48.810;9.282;2023-08-17T15:43:48;33.90;58.60
1367;DHT22;16877;48.810;9.282;2023-08-17T15:46:19;33.80;58.70
1367;DHT22;16877;48.810;9.282;2023-08-17T15:48:48;33.80;58.80
1367;DHT22;16877;48.810;9.282;2023-08-17T15:51:20;33.80;58.80
1367;DHT22;16877;48.810;9.282;2023-08-17T15:53:55;33.90;58.90
1367;DHT22;16877;48.810;9.282;2023-08-17T15:56:23;33.90;58.80